sensor_id;sensor_type;location;lat;lon;timestamp;temperature;humidity
25753;DHT22;13600;50.816;4.416;2023-07-20T00:01:58;19.30;99.90
25753;DHT22;13600;50.816;4.416;2023-07-20T00:04:24;19.30;99.90
25753;DHT22;13600;50.816;4.416;2023-07-20T00:06:49;19.20;99.90
25753;DHT22;13600;50.816;4.416;2023-07-20T00:09:15;19.20;99.90
25753;DHT22;13600;50.816;4.416;2023-07-20T00:11:48;19.20;99.90
25753;DHT22;13600;50.816;4.416;2023-07-20T00:14:16;19.20;99.90
25753;DHT22;13600;50.816;4.416;2023-07-20T00:16:42;19.30;99.90
25753;DHT22;13600;50.816;4.416;2023-07-20T00:19:07;19.30;99.90
25753;DHT22;13600;50.816;4.416;2023-07-20T00:21:33;19.20;99.90
25753;DHT22;13600;50.816;4.416;2023-07-20T00:23:59;19.20;99.90
25753;DHT22;13600;50.816;4.416;2023-07-20T00:26:24;19.20;99.90
25753;DHT22;13600;50.816;4.416;2023-07-20T00:28:50;19.10;99.90
25753;DHT22;13600;50.816;4.416;2023-07-20T00:31:17;19.10;99.90
25753;DHT22;13600;50.816;4.416;2023-07-20T00:33:42;19.10;99.90
25753;DHT22;13600;50.816;4.416;2023-07-20T00:36:08;19.20;99.90
25753;DHT22;13600;50.816;4.416;2023-07-20T00:38:33;19.10;99.90
25753;DHT22;13600;50.816;4.416;2023-07-20T00:40:59;19.20;99.90
25753;DHT22;13600;50.816;4.416;2023-07-20T00:43:24;19.20;99.90
25753;DHT22;13600;50.816;4.416;2023-07-20T00:45:50;19.20;99.90
25753;DHT22;13600;50.816;4.416;2023-07-20T00:48:16;19.20;99.90
25753;DHT22;13600;50.816;4.416;2023-07-20T00:50:42;19.30;99.90
25753;DHT22;13600;50.816;4.416;2023-07-20T00:53:08;19.20;99.90
25753;DHT22;13600;50.816;4.416;2023-07-20T00:55:34;19.20;99.90
25753;DHT22;13600;50.816;4.416;2023-07-20T00:58:00;19.20;99.90
25753;DHT22;13600;50.816;4.416;2023-07-20T01:00:26;19.20;99.90
25753;DHT22;13600;50.816;4.416;2023-07-20T01:02:53;19.20;99.90
25753;DHT22;13600;50.816;4.416;2023-07-20T01:05:19;19.20;99.90
25753;DHT22;13600;50.816;4.416;2023-07-20T01:08:01;19.10;99.90
25753;DHT22;13600;50.816;4.416;2023-07-20T01:13:00;19.20;99.90
25753;DHT22;13600;50.816;4.416;2023-07-20T01:15:27;19.00;99.90
25753;DHT22;13600;50.816;4.416;2023-07-20T01:17:53;19.00;99.90
25753;DHT22;13600;50.816;4.416;2023-07-20T01:20:20;19.00;99.90
25753;DHT22;13600;50.816;4.416;2023-07-20T01:31:32;19.20;99.90
25753;DHT22;13600;50.816;4.416;2023-07-20T01:34:00;19.20;99.90
25753;DHT22;13600;50.816;4.416;2023-07-20T01:36:37;19.20;99.90
25753;DHT22;13600;50.816;4.416;2023-07-20T01:39:04;19.10;99.90
25753;DHT22;13600;50.816;4.416;2023-07-20T01:41:30;19.00;99.90
25753;DHT22;13600;50.816;4.416;2023-07-20T01:43:59;18.80;99.90
25753;DHT22;13600;50.816;4.416;2023-07-20T01:46:25;18.90;99.90
25753;DHT22;13600;50.816;4.416;2023-07-20T01:48:52;18.90;99.90
25753;DHT22;13600;50.816;4.416;2023-07-20T01:51:17;19.00;99.90
25753;DHT22;13600;50.816;4.416;2023-07-20T01:53:43;18.80;99.90
25753;DHT22;13600;50.816;4.416;2023-07-20T01:56:09;18.90;99.90
25753;DHT22;13600;50.816;4.416;2023-07-20T01:58:37;18.90;99.90
25753;DHT22;13600;50.816;4.416;2023-07-20T02:01:03;18.80;99.90
25753;DHT22;13600;50.816;4.416;2023-07-20T02:03:29;18.90;99.90
25753;DHT22;13600;50.816;4.416;2023-07-20T02:05:54;18.90;99.90
25753;DHT22;13600;50.816;4.416;2023-07-20T02:08:20;18.90;99.90
25753;DHT22;13600;50.816;4.416;2023-07-20T02:10:48;18.90;99.90
25753;DHT22;13600;50.816;4.416;2023-07-20T02:13:14;18.90;99.90
25753;DHT22;13600;50.816;4.416;2023-07-20T02:15:40;19.00;99.90
25753;DHT22;13600;50.816;4.416;2023-07-20T02:18:06;19.00;99.90
25753;DHT22;13600;50.816;4.416;2023-07-20T02:20:33;18.90;99.90
25753;DHT22;13600;50.816;4.416;2023-07-20T02:22:59;18.80;99.90
25753;DHT22;13600;50.816;4.416;2023-07-20T02:25:24;18.90;99.90
25753;DHT22;13600;50.816;4.416;2023-07-20T02:27:50;18.90;99.90
25753;DHT22;13600;50.816;4.416;2023-07-20T02:30:15;18.90;99.90
25753;DHT22;13600;50.816;4.416;2023-07-20T02:32:41;19.00;99.90
25753;DHT22;13600;50.816;4.416;2023-07-20T02:35:11;19.00;99.90
25753;DHT22;13600;50.816;4.416;2023-07-20T02:37:37;19.00;99.90
25753;DHT22;13600;50.816;4.416;2023-07-20T02:40:03;18.90;99.90
25753;DHT22;13600;50.816;4.416;2023-07-20T02:42:30;18.90;99.90
25753;DHT22;13600;50.816;4.416;2023-07-20T02:44:55;18.90;99.90
25753;DHT22;13600;50.816;4.416;2023-07-20T02:47:21;18.90;99.90
25753;DHT22;13600;50.816;4.416;2023-07-20T02:49:47;18.90;99.90
25753;DHT22;13600;50.816;4.416;2023-07-20T02:52:12;18.90;99.90
25753;DHT22;13600;50.816;4.416;2023-07-20T02:54:38;18.90;99.90
25753;DHT22;13600;50.816;4.416;2023-07-20T02:57:04;18.90;99.90
25753;DHT22;13600;50.816;4.416;2023-07-20T02:59:29;18.90;99.90
25753;DHT22;13600;50.816;4.416;2023-07-20T03:01:55;18.90;99.90
25753;DHT22;13600;50.816;4.416;2023-07-20T03:04:21;18.90;99.90
25753;DHT22;13600;50.816;4.416;2023-07-20T03:06:47;18.90;99.90
25753;DHT22;13600;50.816;4.416;2023-07-20T03:09:12;18.90;99.90
25753;DHT22;13600;50.816;4.416;2023-07-20T03:11:38;18.80;99.90
25753;DHT22;13600;50.816;4.416;2023-07-20T03:14:04;18.90;99.90
25753;DHT22;13600;50.816;4.416;2023-07-20T03:16:29;18.90;99.90
25753;DHT22;13600;50.816;4.416;2023-07-20T03:18:58;18.90;99.90
25753;DHT22;13600;50.816;4.416;2023-07-20T03:21:24;18.90;99.90
25753;DHT22;13600;50.816;4.416;2023-07-20T03:23:50;19.00;99.90
25753;DHT22;13600;50.816;4.416;2023-07-20T03:26:15;19.00;99.90
25753;DHT22;13600;50.816;4.416;2023-07-20T03:28:41;19.00;99.90
25753;DHT22;13600;50.816;4.416;2023-07-20T03:31:07;19.00;99.90
25753;DHT22;13600;50.816;4.416;2023-07-20T03:33:32;19.00;99.90
25753;DHT22;13600;50.816;4.416;2023-07-20T03:35:59;19.00;99.90
25753;DHT22;13600;50.816;4.416;2023-07-20T03:38:25;19.00;99.90
25753;DHT22;13600;50.816;4.416;2023-07-20T03:40:55;18.90;99.90
25753;DHT22;13600;50.816;4.416;2023-07-20T03:43:21;19.00;99.90
25753;DHT22;13600;50.816;4.416;2023-07-20T03:45:47;19.00;99.90
25753;DHT22;13600;50.816;4.416;2023-07-20T03:48:17;18.90;99.90
25753;DHT22;13600;50.816;4.416;2023-07-20T03:50:47;19.00;99.90
25753;DHT22;13600;50.816;4.416;2023-07-20T03:53:14;18.90;99.90
25753;DHT22;13600;50.816;4.416;2023-07-20T03:55:40;18.90;99.90
25753;DHT22;13600;50.816;4.416;2023-07-20T03:58:07;18.90;99.90
25753;DHT22;13600;50.816;4.416;2023-07-20T04:00:34;18.90;99.90
25753;DHT22;13600;50.816;4.416;2023-07-20T04:02:59;19.00;99.90
25753;DHT22;13600;50.816;4.416;2023-07-20T04:05:26;18.90;99.90
25753;DHT22;13600;50.816;4.416;2023-07-20T04:07:51;18.90;99.90
25753;DHT22;13600;50.816;4.416;2023-07-20T04:10:35;18.90;99.90
25753;DHT22;13600;50.816;4.416;2023-07-20T04:13:01;18.90;99.90
25753;DHT22;13600;50.816;4.416;2023-07-20T04:15:27;18.90;99.90
25753;DHT22;13600;50.816;4.416;2023-07-20T04:17:52;18.80;99.90
25753;DHT22;13600;50.816;4.416;2023-07-20T04:20:18;18.90;99.90
25753;DHT22;13600;50.816;4.416;2023-07-20T04:22:44;18.90;99.90
25753;DHT22;13600;50.816;4.416;2023-07-20T04:25:09;18.90;99.90
25753;DHT22;13600;50.816;4.416;2023-07-20T04:27:36;18.90;99.90
25753;DHT22;13600;50.816;4.416;2023-07-20T04:30:02;18.90;99.90
25753;DHT22;13600;50.816;4.416;2023-07-20T04:32:29;19.00;99.90
25753;DHT22;13600;50.816;4.416;2023-07-20T04:34:54;19.00;99.90
25753;DHT22;13600;50.816;4.416;2023-07-20T04:37:21;19.00;99.90
25753;DHT22;13600;50.816;4.416;2023-07-20T04:39:47;19.00;99.90
25753;DHT22;13600;50.816;4.416;2023-07-20T04:42:12;19.10;99.90
25753;DHT22;13600;50.816;4.416;2023-07-20T04:44:38;19.10;99.90
25753;DHT22;13600;50.816;4.416;2023-07-20T04:47:04;19.10;99.90
25753;DHT22;13600;50.816;4.416;2023-07-20T04:49:29;19.10;99.90
25753;DHT22;13600;50.816;4.416;2023-07-20T04:51:55;19.10;99.90
25753;DHT22;13600;50.816;4.416;2023-07-20T04:54:21;19.10;99.90
25753;DHT22;13600;50.816;4.416;2023-07-20T04:56:47;19.20;99.90
25753;DHT22;13600;50.816;4.416;2023-07-20T04:59:12;19.20;99.90
25753;DHT22;13600;50.816;4.416;2023-07-20T05:01:38;19.30;99.90
25753;DHT22;13600;50.816;4.416;2023-07-20T05:04:04;19.30;99.90
25753;DHT22;13600;50.816;4.416;2023-07-20T05:06:29;19.30;99.90
25753;DHT22;13600;50.816;4.416;2023-07-20T05:08:55;19.20;99.90
25753;DHT22;13600;50.816;4.416;2023-07-20T05:11:20;19.20;99.90
25753;DHT22;13600;50.816;4.416;2023-07-20T05:13:46;19.20;99.90
25753;DHT22;13600;50.816;4.416;2023-07-20T05:16:12;19.30;99.90
25753;DHT22;13600;50.816;4.416;2023-07-20T05:18:37;19.30;99.90
25753;DHT22;13600;50.816;4.416;2023-07-20T05:21:03;19.30;99.90
25753;DHT22;13600;50.816;4.416;2023-07-20T05:23:28;19.40;99.90
25753;DHT22;13600;50.816;4.416;2023-07-20T05:25:55;19.40;99.90
25753;DHT22;13600;50.816;4.416;2023-07-20T05:28:22;19.30;99.90
25753;DHT22;13600;50.816;4.416;2023-07-20T05:30:47;19.40;99.90
25753;DHT22;13600;50.816;4.416;2023-07-20T05:33:13;19.50;99.90
25753;DHT22;13600;50.816;4.416;2023-07-20T05:35:39;19.50;99.90
25753;DHT22;13600;50.816;4.416;2023-07-20T05:38:06;19.60;99.90
25753;DHT22;13600;50.816;4.416;2023-07-20T05:40:32;19.70;99.90
25753;DHT22;13600;50.816;4.416;2023-07-20T05:42:57;19.70;99.90
25753;DHT22;13600;50.816;4.416;2023-07-20T05:45:24;19.70;99.90
25753;DHT22;13600;50.816;4.416;2023-07-20T05:47:50;19.70;99.90
25753;DHT22;13600;50.816;4.416;2023-07-20T05:50:15;19.70;99.90
25753;DHT22;13600;50.816;4.416;2023-07-20T05:52:41;19.80;99.90
25753;DHT22;13600;50.816;4.416;2023-07-20T05:55:07;19.70;99.90
25753;DHT22;13600;50.816;4.416;2023-07-20T05:57:33;19.80;99.90
25753;DHT22;13600;50.816;4.416;2023-07-20T05:59:59;19.70;99.90
25753;DHT22;13600;50.816;4.416;2023-07-20T06:02:25;19.70;99.90
25753;DHT22;13600;50.816;4.416;2023-07-20T06:04:50;19.80;99.90
25753;DHT22;13600;50.816;4.416;2023-07-20T06:07:16;19.90;99.90
25753;DHT22;13600;50.816;4.416;2023-07-20T06:09:42;20.00;99.90
25753;DHT22;13600;50.816;4.416;2023-07-20T06:12:08;19.90;99.90
25753;DHT22;13600;50.816;4.416;2023-07-20T06:14:34;20.00;99.90
25753;DHT22;13600;50.816;4.416;2023-07-20T06:17:00;20.10;99.90
25753;DHT22;13600;50.816;4.416;2023-07-20T06:19:26;20.30;99.90
25753;DHT22;13600;50.816;4.416;2023-07-20T06:21:52;20.30;99.90
25753;DHT22;13600;50.816;4.416;2023-07-20T06:24:17;20.40;99.90
25753;DHT22;13600;50.816;4.416;2023-07-20T06:26:43;20.40;99.90
25753;DHT22;13600;50.816;4.416;2023-07-20T06:29:09;20.30;99.90
25753;DHT22;13600;50.816;4.416;2023-07-20T06:31:36;20.30;99.90
25753;DHT22;13600;50.816;4.416;2023-07-20T06:34:02;20.50;99.90
25753;DHT22;13600;50.816;4.416;2023-07-20T06:36:28;20.70;99.90
25753;DHT22;13600;50.816;4.416;2023-07-20T06:38:54;20.90;99.90
25753;DHT22;13600;50.816;4.416;2023-07-20T06:41:20;20.90;99.90
25753;DHT22;13600;50.816;4.416;2023-07-20T06:43:46;20.90;99.90
25753;DHT22;13600;50.816;4.416;2023-07-20T06:46:11;20.70;99.90
25753;DHT22;13600;50.816;4.416;2023-07-20T06:48:37;20.80;99.90
25753;DHT22;13600;50.816;4.416;2023-07-20T06:51:02;20.90;99.90
25753;DHT22;13600;50.816;4.416;2023-07-20T06:53:29;20.90;99.90
25753;DHT22;13600;50.816;4.416;2023-07-20T06:55:55;20.90;99.90
25753;DHT22;13600;50.816;4.416;2023-07-20T06:58:24;20.70;99.90
25753;DHT22;13600;50.816;4.416;2023-07-20T07:00:51;20.70;99.90
25753;DHT22;13600;50.816;4.416;2023-07-20T07:03:17;20.70;99.90
25753;DHT22;13600;50.816;4.416;2023-07-20T07:05:43;20.80;99.90
25753;DHT22;13600;50.816;4.416;2023-07-20T07:08:09;20.90;99.90
25753;DHT22;13600;50.816;4.416;2023-07-20T07:10:35;21.00;99.90
25753;DHT22;13600;50.816;4.416;2023-07-20T07:13:02;21.30;99.90
25753;DHT22;13600;50.816;4.416;2023-07-20T07:15:27;21.30;99.90
25753;DHT22;13600;50.816;4.416;2023-07-20T07:17:53;21.40;99.90
25753;DHT22;13600;50.816;4.416;2023-07-20T07:20:19;21.70;99.90
25753;DHT22;13600;50.816;4.416;2023-07-20T07:22:45;22.00;99.90
25753;DHT22;13600;50.816;4.416;2023-07-20T07:25:11;22.30;99.90
25753;DHT22;13600;50.816;4.416;2023-07-20T07:27:37;22.50;99.90
25753;DHT22;13600;50.816;4.416;2023-07-20T07:30:04;24.00;99.90
25753;DHT22;13600;50.816;4.416;2023-07-20T07:32:30;25.90;99.90
25753;DHT22;13600;50.816;4.416;2023-07-20T07:34:56;26.70;99.90
25753;DHT22;13600;50.816;4.416;2023-07-20T07:37:23;27.80;99.90
25753;DHT22;13600;50.816;4.416;2023-07-20T07:39:49;29.90;99.90
25753;DHT22;13600;50.816;4.416;2023-07-20T07:42:15;31.50;98.80
25753;DHT22;13600;50.816;4.416;2023-07-20T07:44:40;32.40;94.60
25753;DHT22;13600;50.816;4.416;2023-07-20T07:47:06;33.70;91.00
25753;DHT22;13600;50.816;4.416;2023-07-20T07:49:32;33.50;87.00
25753;DHT22;13600;50.816;4.416;2023-07-20T07:51:57;34.50;84.00
25753;DHT22;13600;50.816;4.416;2023-07-20T07:54:23;34.60;80.70
25753;DHT22;13600;50.816;4.416;2023-07-20T07:56:48;32.90;80.70
25753;DHT22;13600;50.816;4.416;2023-07-20T07:59:14;31.00;86.30
25753;DHT22;13600;50.816;4.416;2023-07-20T08:01:40;31.00;88.60
25753;DHT22;13600;50.816;4.416;2023-07-20T08:04:05;31.60;84.50
25753;DHT22;13600;50.816;4.416;2023-07-20T08:06:31;31.70;83.20
25753;DHT22;13600;50.816;4.416;2023-07-20T08:08:57;31.50;83.50
25753;DHT22;13600;50.816;4.416;2023-07-20T08:11:23;29.90;86.10
25753;DHT22;13600;50.816;4.416;2023-07-20T08:13:49;28.70;90.40
25753;DHT22;13600;50.816;4.416;2023-07-20T08:16:15;27.50;92.90
25753;DHT22;13600;50.816;4.416;2023-07-20T08:18:40;26.50;99.00
25753;DHT22;13600;50.816;4.416;2023-07-20T08:21:06;25.70;99.90
25753;DHT22;13600;50.816;4.416;2023-07-20T08:23:31;25.20;99.90
25753;DHT22;13600;50.816;4.416;2023-07-20T08:25:57;24.70;99.90
25753;DHT22;13600;50.816;4.416;2023-07-20T08:28:22;24.40;99.90
25753;DHT22;13600;50.816;4.416;2023-07-20T08:30:49;24.80;99.90
25753;DHT22;13600;50.816;4.416;2023-07-20T08:33:18;27.10;99.90
25753;DHT22;13600;50.816;4.416;2023-07-20T08:35:45;27.30;99.90
25753;DHT22;13600;50.816;4.416;2023-07-20T08:38:11;29.40;99.50
25753;DHT22;13600;50.816;4.416;2023-07-20T08:40:42;31.30;94.10
25753;DHT22;13600;50.816;4.416;2023-07-20T08:43:10;30.80;92.90
25753;DHT22;13600;50.816;4.416;2023-07-20T08:45:36;30.80;91.80
25753;DHT22;13600;50.816;4.416;2023-07-20T08:48:05;29.90;92.50
25753;DHT22;13600;50.816;4.416;2023-07-20T08:50:31;28.60;94.20
25753;DHT22;13600;50.816;4.416;2023-07-20T08:52:58;27.50;97.40
25753;DHT22;13600;50.816;4.416;2023-07-20T08:55:26;26.20;99.20
25753;DHT22;13600;50.816;4.416;2023-07-20T08:57:54;25.70;99.90
25753;DHT22;13600;50.816;4.416;2023-07-20T09:00:21;25.40;99.90
25753;DHT22;13600;50.816;4.416;2023-07-20T09:02:49;25.70;99.90
25753;DHT22;13600;50.816;4.416;2023-07-20T09:05:16;28.50;98.00
25753;DHT22;13600;50.816;4.416;2023-07-20T09:07:42;30.70;91.90
25753;DHT22;13600;50.816;4.416;2023-07-20T09:10:08;33.00;84.00
25753;DHT22;13600;50.816;4.416;2023-07-20T09:12:39;34.50;77.70
25753;DHT22;13600;50.816;4.416;2023-07-20T09:15:06;34.40;74.50
25753;DHT22;13600;50.816;4.416;2023-07-20T09:17:32;33.10;76.10
25753;DHT22;13600;50.816;4.416;2023-07-20T09:19:58;31.50;80.00
25753;DHT22;13600;50.816;4.416;2023-07-20T09:22:30;30.20;83.00
25753;DHT22;13600;50.816;4.416;2023-07-20T09:24:56;28.90;86.10
25753;DHT22;13600;50.816;4.416;2023-07-20T09:27:24;28.50;88.00
25753;DHT22;13600;50.816;4.416;2023-07-20T09:29:54;30.30;83.60
25753;DHT22;13600;50.816;4.416;2023-07-20T09:32:22;32.50;76.60
25753;DHT22;13600;50.816;4.416;2023-07-20T09:34:49;33.40;74.70
25753;DHT22;13600;50.816;4.416;2023-07-20T09:37:20;34.40;73.40
25753;DHT22;13600;50.816;4.416;2023-07-20T09:39:47;36.10;68.40
25753;DHT22;13600;50.816;4.416;2023-07-20T09:42:12;37.10;66.10
25753;DHT22;13600;50.816;4.416;2023-07-20T09:44:39;37.10;64.50
25753;DHT22;13600;50.816;4.416;2023-07-20T09:47:06;36.30;63.90
25753;DHT22;13600;50.816;4.416;2023-07-20T09:49:32;35.40;66.60
25753;DHT22;13600;50.816;4.416;2023-07-20T09:51:58;36.10;65.10
25753;DHT22;13600;50.816;4.416;2023-07-20T09:54:26;37.20;61.10
25753;DHT22;13600;50.816;4.416;2023-07-20T09:56:53;37.50;59.30
25753;DHT22;13600;50.816;4.416;2023-07-20T09:59:19;38.60;58.00
25753;DHT22;13600;50.816;4.416;2023-07-20T10:01:46;36.40;59.10
25753;DHT22;13600;50.816;4.416;2023-07-20T10:04:14;36.20;61.10
25753;DHT22;13600;50.816;4.416;2023-07-20T10:06:43;36.50;59.30
25753;DHT22;13600;50.816;4.416;2023-07-20T10:09:15;38.20;57.50
25753;DHT22;13600;50.816;4.416;2023-07-20T10:11:49;38.80;57.30
25753;DHT22;13600;50.816;4.416;2023-07-20T10:14:20;39.40;55.60
25753;DHT22;13600;50.816;4.416;2023-07-20T10:16:56;39.50;54.00
25753;DHT22;13600;50.816;4.416;2023-07-20T10:19:29;39.50;53.70
25753;DHT22;13600;50.816;4.416;2023-07-20T10:22:12;39.30;54.50
25753;DHT22;13600;50.816;4.416;2023-07-20T10:24:39;37.70;55.20
25753;DHT22;13600;50.816;4.416;2023-07-20T10:27:07;35.80;57.30
25753;DHT22;13600;50.816;4.416;2023-07-20T10:29:32;34.70;59.00
25753;DHT22;13600;50.816;4.416;2023-07-20T10:31:58;34.70;59.60
25753;DHT22;13600;50.816;4.416;2023-07-20T10:34:25;35.20;59.20
25753;DHT22;13600;50.816;4.416;2023-07-20T10:36:50;34.70;59.10
25753;DHT22;13600;50.816;4.416;2023-07-20T10:39:33;33.60;60.30
25753;DHT22;13600;50.816;4.416;2023-07-20T10:42:09;32.10;62.70
25753;DHT22;13600;50.816;4.416;2023-07-20T10:44:39;32.10;65.00
25753;DHT22;13600;50.816;4.416;2023-07-20T10:47:10;34.40;65.00
25753;DHT22;13600;50.816;4.416;2023-07-20T10:49:39;34.60;60.00
25753;DHT22;13600;50.816;4.416;2023-07-20T10:52:21;33.50;62.00
25753;DHT22;13600;50.816;4.416;2023-07-20T10:54:47;33.00;61.80
25753;DHT22;13600;50.816;4.416;2023-07-20T10:57:30;32.70;62.00
25753;DHT22;13600;50.816;4.416;2023-07-20T11:00:13;32.30;63.60
25753;DHT22;13600;50.816;4.416;2023-07-20T11:02:58;33.20;64.30
25753;DHT22;13600;50.816;4.416;2023-07-20T11:05:38;33.00;60.90
25753;DHT22;13600;50.816;4.416;2023-07-20T11:08:09;32.40;62.40
25753;DHT22;13600;50.816;4.416;2023-07-20T11:10:35;33.60;61.50
25753;DHT22;13600;50.816;4.416;2023-07-20T11:13:20;35.00;60.80
25753;DHT22;13600;50.816;4.416;2023-07-20T11:18:25;33.40;59.70
25753;DHT22;13600;50.816;4.416;2023-07-20T11:20:51;32.20;62.50
25753;DHT22;13600;50.816;4.416;2023-07-20T11:23:19;32.10;63.30
25753;DHT22;13600;50.816;4.416;2023-07-20T11:25:45;32.80;62.90
25753;DHT22;13600;50.816;4.416;2023-07-20T11:28:11;32.80;61.90
25753;DHT22;13600;50.816;4.416;2023-07-20T11:30:40;32.40;61.90
25753;DHT22;13600;50.816;4.416;2023-07-20T11:33:08;32.30;62.80
25753;DHT22;13600;50.816;4.416;2023-07-20T11:35:44;34.40;64.40
25753;DHT22;13600;50.816;4.416;2023-07-20T11:38:13;35.80;57.90
25753;DHT22;13600;50.816;4.416;2023-07-20T11:40:46;36.70;56.10
25753;DHT22;13600;50.816;4.416;2023-07-20T11:43:14;35.30;56.80
25753;DHT22;13600;50.816;4.416;2023-07-20T11:45:40;34.20;58.40
25753;DHT22;13600;50.816;4.416;2023-07-20T11:48:06;33.90;59.70
25753;DHT22;13600;50.816;4.416;2023-07-20T11:50:31;34.80;59.70
25753;DHT22;13600;50.816;4.416;2023-07-20T11:52:57;34.80;59.30
25753;DHT22;13600;50.816;4.416;2023-07-20T11:55:23;35.80;58.00
25753;DHT22;13600;50.816;4.416;2023-07-20T11:58:02;37.30;56.10
25753;DHT22;13600;50.816;4.416;2023-07-20T12:00:28;36.60;56.00
25753;DHT22;13600;50.816;4.416;2023-07-20T12:02:54;35.70;56.20
25753;DHT22;13600;50.816;4.416;2023-07-20T12:05:22;35.20;57.00
25753;DHT22;13600;50.816;4.416;2023-07-20T12:07:49;34.30;58.20
25753;DHT22;13600;50.816;4.416;2023-07-20T12:10:16;33.40;59.10
25753;DHT22;13600;50.816;4.416;2023-07-20T12:12:43;32.70;58.90
25753;DHT22;13600;50.816;4.416;2023-07-20T12:17:49;31.80;60.90
25753;DHT22;13600;50.816;4.416;2023-07-20T12:20:35;31.30;61.90
25753;DHT22;13600;50.816;4.416;2023-07-20T12:23:04;31.20;63.00
25753;DHT22;13600;50.816;4.416;2023-07-20T12:25:44;30.80;63.30
25753;DHT22;13600;50.816;4.416;2023-07-20T12:28:16;30.50;64.70
25753;DHT22;13600;50.816;4.416;2023-07-20T12:30:43;30.50;65.10
25753;DHT22;13600;50.816;4.416;2023-07-20T12:33:12;31.80;63.20
25753;DHT22;13600;50.816;4.416;2023-07-20T12:35:41;33.30;61.40
25753;DHT22;13600;50.816;4.416;2023-07-20T12:38:06;35.80;58.80
25753;DHT22;13600;50.816;4.416;2023-07-20T12:40:33;37.70;55.70
25753;DHT22;13600;50.816;4.416;2023-07-20T12:42:59;38.50;54.40
25753;DHT22;13600;50.816;4.416;2023-07-20T12:45:26;38.00;53.30
25753;DHT22;13600;50.816;4.416;2023-07-20T12:47:52;35.80;54.90
25753;DHT22;13600;50.816;4.416;2023-07-20T12:50:17;34.40;56.90
25753;DHT22;13600;50.816;4.416;2023-07-20T12:52:43;33.40;58.10
25753;DHT22;13600;50.816;4.416;2023-07-20T12:55:09;32.30;60.10
25753;DHT22;13600;50.816;4.416;2023-07-20T12:57:36;31.30;61.80
25753;DHT22;13600;50.816;4.416;2023-07-20T13:00:03;30.60;62.70
25753;DHT22;13600;50.816;4.416;2023-07-20T13:02:32;29.90;64.10
25753;DHT22;13600;50.816;4.416;2023-07-20T13:04:58;29.20;66.10
25753;DHT22;13600;50.816;4.416;2023-07-20T13:07:32;28.70;67.70
25753;DHT22;13600;50.816;4.416;2023-07-20T13:09:59;28.30;68.60
25753;DHT22;13600;50.816;4.416;2023-07-20T13:12:29;28.00;70.80
25753;DHT22;13600;50.816;4.416;2023-07-20T13:14:55;27.80;72.90
25753;DHT22;13600;50.816;4.416;2023-07-20T13:17:22;27.40;74.80
25753;DHT22;13600;50.816;4.416;2023-07-20T13:19:48;27.20;74.50
25753;DHT22;13600;50.816;4.416;2023-07-20T13:22:15;27.10;75.10
25753;DHT22;13600;50.816;4.416;2023-07-20T13:24:41;26.90;75.50
25753;DHT22;13600;50.816;4.416;2023-07-20T13:27:07;26.70;75.50
25753;DHT22;13600;50.816;4.416;2023-07-20T13:29:32;26.60;76.50
25753;DHT22;13600;50.816;4.416;2023-07-20T13:31:58;26.60;76.80
25753;DHT22;13600;50.816;4.416;2023-07-20T13:34:25;26.50;77.60
25753;DHT22;13600;50.816;4.416;2023-07-20T13:36:51;26.50;77.10
25753;DHT22;13600;50.816;4.416;2023-07-20T13:39:17;26.70;77.40
25753;DHT22;13600;50.816;4.416;2023-07-20T13:41:42;26.90;76.80
25753;DHT22;13600;50.816;4.416;2023-07-20T13:44:08;27.10;76.80
25753;DHT22;13600;50.816;4.416;2023-07-20T13:46:33;27.20;77.30
25753;DHT22;13600;50.816;4.416;2023-07-20T13:49:00;27.40;76.90
25753;DHT22;13600;50.816;4.416;2023-07-20T13:51:25;27.80;76.90
25753;DHT22;13600;50.816;4.416;2023-07-20T13:53:51;28.10;76.50
25753;DHT22;13600;50.816;4.416;2023-07-20T13:56:17;28.30;75.20
25753;DHT22;13600;50.816;4.416;2023-07-20T13:58:43;28.40;74.70
25753;DHT22;13600;50.816;4.416;2023-07-20T14:01:08;28.20;73.60
25753;DHT22;13600;50.816;4.416;2023-07-20T14:03:34;27.80;74.30
25753;DHT22;13600;50.816;4.416;2023-07-20T14:05:59;27.30;76.80
25753;DHT22;13600;50.816;4.416;2023-07-20T14:08:25;26.80;80.00
25753;DHT22;13600;50.816;4.416;2023-07-20T14:10:50;27.00;78.90
25753;DHT22;13600;50.816;4.416;2023-07-20T14:13:16;27.10;79.10
25753;DHT22;13600;50.816;4.416;2023-07-20T14:15:41;27.60;78.10
25753;DHT22;13600;50.816;4.416;2023-07-20T14:18:07;28.70;77.10
25753;DHT22;13600;50.816;4.416;2023-07-20T14:20:33;30.40;73.70
25753;DHT22;13600;50.816;4.416;2023-07-20T14:22:58;31.60;69.50
25753;DHT22;13600;50.816;4.416;2023-07-20T14:25:24;31.60;67.90
25753;DHT22;13600;50.816;4.416;2023-07-20T14:27:49;31.40;68.60
25753;DHT22;13600;50.816;4.416;2023-07-20T14:30:15;31.60;68.40
25753;DHT22;13600;50.816;4.416;2023-07-20T14:32:41;31.60;68.10
25753;DHT22;13600;50.816;4.416;2023-07-20T14:35:07;32.20;67.40
25753;DHT22;13600;50.816;4.416;2023-07-20T14:37:34;32.40;65.10
25753;DHT22;13600;50.816;4.416;2023-07-20T14:40:00;33.30;64.40
25753;DHT22;13600;50.816;4.416;2023-07-20T14:42:26;33.30;63.70
25753;DHT22;13600;50.816;4.416;2023-07-20T14:44:52;33.10;63.40
25753;DHT22;13600;50.816;4.416;2023-07-20T14:47:18;32.70;64.30
25753;DHT22;13600;50.816;4.416;2023-07-20T14:49:44;33.70;62.90
25753;DHT22;13600;50.816;4.416;2023-07-20T14:52:10;34.00;60.80
25753;DHT22;13600;50.816;4.416;2023-07-20T14:54:35;34.10;60.80
25753;DHT22;13600;50.816;4.416;2023-07-20T14:57:01;34.20;61.50
25753;DHT22;13600;50.816;4.416;2023-07-20T14:59:28;35.00;60.60
25753;DHT22;13600;50.816;4.416;2023-07-20T15:01:53;35.50;59.00
25753;DHT22;13600;50.816;4.416;2023-07-20T15:04:19;34.60;58.50
25753;DHT22;13600;50.816;4.416;2023-07-20T15:06:44;33.50;59.90
25753;DHT22;13600;50.816;4.416;2023-07-20T15:09:10;32.50;61.90
25753;DHT22;13600;50.816;4.416;2023-07-20T15:11:36;31.70;64.30
25753;DHT22;13600;50.816;4.416;2023-07-20T15:14:02;31.10;65.30
25753;DHT22;13600;50.816;4.416;2023-07-20T15:16:28;30.40;67.20
25753;DHT22;13600;50.816;4.416;2023-07-20T15:18:54;29.80;68.60
25753;DHT22;13600;50.816;4.416;2023-07-20T15:21:20;29.50;68.70
25753;DHT22;13600;50.816;4.416;2023-07-20T15:23:45;29.20;68.90
25753;DHT22;13600;50.816;4.416;2023-07-20T15:26:11;28.70;70.90
25753;DHT22;13600;50.816;4.416;2023-07-20T15:28:37;28.20;71.90
25753;DHT22;13600;50.816;4.416;2023-07-20T15:31:04;27.70;73.00
25753;DHT22;13600;50.816;4.416;2023-07-20T15:33:30;27.40;74.60
25753;DHT22;13600;50.816;4.416;2023-07-20T15:35:56;27.10;75.90
25753;DHT22;13600;50.816;4.416;2023-07-20T15:38:22;26.80;75.90
25753;DHT22;13600;50.816;4.416;2023-07-20T15:40:47;26.60;77.40
25753;DHT22;13600;50.816;4.416;2023-07-20T15:43:16;26.40;78.30
25753;DHT22;13600;50.816;4.416;2023-07-20T15:45:47;26.10;81.30